Time;durP1;ratioP1;P1;durP2;ratioP2;P2;SDS_P1;SDS_P2;PMS_P1;PMS_P2;Temp;Humidity;BMP_temperature;BMP_pressure;BME280_temperature;BME280_humidity;BME280_pressure;Samples;Min_cycle;Max_cycle;Signal;HPM_P1;HPM_P2
2022/08/17 00:01:55;;;;;;;11.30;8.57;;;25.10;65.70;;;;;;5092415;28;20047;-64
2022/08/17 00:04:20;;;;;;;11.57;8.10;;;25.10;65.80;;;;;;5091397;28;20040;-65
2022/08/17 00:06:46;;;;;;;11.35;9.18;;;25.10;65.80;;;;;;5092454;28;20479;-65
2022/08/17 00:09:12;;;;;;;10.88;8.70;;;25.10;65.80;;;;;;5092378;28;20051;-64
2022/08/17 00:11:39;;;;;;;12.10;8.77;;;25.00;65.80;;;;;;5091422;28;20123;-64
2022/08/17 00:14:07;;;;;;;11.10;8.73;;;25.10;65.90;;;;;;5092675;28;20037;-64
2022/08/17 00:16:34;;;;;;;;;;;25.10;65.80;;;;;;5092520;28;20040;-64
2022/08/17 00:19:06;;;;;;;11.52;8.70;;;25.00;65.70;;;;;;5095844;28;20387;-65
2022/08/17 00:21:32;;;;;;;10.55;8.32;;;25.00;65.90;;;;;;5095198;28;20448;-64
2022/08/17 00:23:58;;;;;;;11.90;9.38;;;25.00;65.90;;;;;;5096318;28;20492;-64
2022/08/17 00:26:26;;;;;;;12.43;8.63;;;25.00;65.90;;;;;;5095487;28;20044;-64
2022/08/17 00:28:52;;;;;;;11.45;9.13;;;25.10;66.00;;;;;;5096230;28;20052;-64
2022/08/17 00:31:17;;;;;;;11.75;9.25;;;25.00;65.90;;;;;;5095784;28;20101;-64
2022/08/17 00:33:44;;;;;;;12.50;9.13;;;25.00;65.90;;;;;;5094499;28;20048;-64
2022/08/17 00:36:10;;;;;;;12.10;8.90;;;25.00;66.00;;;;;;5096175;28;20442;-64
2022/08/17 00:38:36;;;;;;;11.98;9.63;;;25.00;66.00;;;;;;5094470;28;20040;-64
2022/08/17 00:41:07;;;;;;;12.05;9.27;;;25.00;66.00;;;;;;5094161;28;20108;-65
2022/08/17 00:43:39;;;;;;;11.70;8.77;;;25.00;66.00;;;;;;5095797;28;20048;-64
2022/08/17 00:46:08;;;;;;;12.65;9.57;;;25.00;65.90;;;;;;5094125;28;20044;-64
2022/08/17 00:48:34;;;;;;;11.35;9.27;;;25.00;66.00;;;;;;5094533;28;20044;-64
2022/08/17 00:51:02;;;;;;;12.90;8.75;;;25.00;66.00;;;;;;5096016;28;20081;-64
2022/08/17 00:53:29;;;;;;;12.77;8.80;;;25.00;66.00;;;;;;5095084;28;20052;-65
2022/08/17 00:55:54;;;;;;;11.43;8.63;;;25.00;66.00;;;;;;5094783;28;20123;-64
2022/08/17 00:58:20;;;;;;;11.95;8.90;;;25.00;66.00;;;;;;5077613;28;20122;-64
2022/08/17 01:00:45;;;;;;;12.52;8.55;;;25.00;66.00;;;;;;5095009;28;20055;-64
2022/08/17 01:03:21;;;;;;;13.23;9.35;;;25.00;66.00;;;;;;5094190;28;20040;-64
2022/08/17 01:05:47;;;;;;;10.38;8.52;;;24.90;66.00;;;;;;5094710;28;20117;-65
2022/08/17 01:08:14;;;;;;;12.45;8.93;;;25.00;66.00;;;;;;5093690;28;20036;-64
2022/08/17 01:10:46;;;;;;;10.98;9.18;;;25.00;66.10;;;;;;5095498;28;20412;-64
2022/08/17 01:13:12;;;;;;;13.30;9.27;;;25.00;66.00;;;;;;5094413;28;20056;-64
2022/08/17 01:15:40;;;;;;;13.05;9.15;;;25.00;66.00;;;;;;5094609;28;20044;-64
2022/08/17 01:18:07;;;;;;;10.88;8.68;;;24.90;66.00;;;;;;5094245;28;20069;-64
2022/08/17 01:20:33;;;;;;;11.10;8.80;;;24.90;66.00;;;;;;5094975;28;20433;-64
2022/08/17 01:22:59;;;;;;;11.98;8.52;;;24.90;66.00;;;;;;5093688;28;20089;-65
2022/08/17 01:25:24;;;;;;;11.82;9.15;;;24.90;66.00;;;;;;5095083;28;20039;-65
2022/08/17 01:27:50;;;;;;;13.30;8.88;;;24.90;66.00;;;;;;5093906;28;20059;-64
2022/08/17 01:30:16;;;;;;;12.38;9.00;;;24.90;66.00;;;;;;5093011;28;20101;-64
2022/08/17 01:32:41;;;;;;;9.57;8.52;;;24.90;66.00;;;;;;5076766;28;20048;-64
2022/08/17 01:35:07;;;;;;;12.05;9.18;;;24.90;65.90;;;;;;5094132;28;20119;-64
2022/08/17 01:37:39;;;;;;;10.80;8.80;;;24.90;65.90;;;;;;5094919;28;20044;-64
2022/08/17 01:40:08;;;;;;;12.23;8.93;;;24.90;65.90;;;;;;5095133;28;20047;-64
2022/08/17 01:42:46;;;;;;;10.18;8.40;;;24.90;65.90;;;;;;5094153;28;20044;-64
2022/08/17 01:45:17;;;;;;;11.77;9.32;;;24.90;65.90;;;;;;5095035;28;20227;-65
2022/08/17 01:47:43;;;;;;;10.73;8.73;;;24.90;65.90;;;;;;5094977;28;20043;-64
2022/08/17 01:50:11;;;;;;;10.98;9.13;;;24.90;65.90;;;;;;5126962;27;20067;-65
2022/08/17 01:52:36;;;;;;;;;;;24.90;65.90;;;;;;5094946;28;20518;-64
2022/08/17 01:55:02;;;;;;;11.40;8.57;;;24.80;65.70;;;;;;5093324;28;19920;-64
2022/08/17 01:57:28;;;;;;;12.07;9.38;;;24.80;65.90;;;;;;5092589;28;20036;-64
2022/08/17 01:59:54;;;;;;;12.15;9.38;;;24.90;65.90;;;;;;5094450;28;20487;-65
2022/08/17 02:02:19;;;;;;;10.88;9.20;;;24.80;65.90;;;;;;5093821;28;20496;-65
2022/08/17 02:04:45;;;;;;;10.50;8.90;;;24.80;65.80;;;;;;5093137;28;20492;-64
2022/08/17 02:07:10;;;;;;;10.60;8.80;;;24.80;65.80;;;;;;5093109;28;20502;-64
2022/08/17 02:09:36;;;;;;;10.82;8.88;;;24.80;65.80;;;;;;5094079;28;20051;-64
2022/08/17 02:12:02;;;;;;;11.07;8.60;;;24.80;65.80;;;;;;5093724;28;20511;-64
2022/08/17 02:14:28;;;;;;;11.43;8.27;;;24.80;65.80;;;;;;5093862;28;20044;-64
2022/08/17 02:16:53;;;;;;;11.98;8.73;;;24.80;65.80;;;;;;5094220;28;20066;-64
2022/08/17 02:19:19;;;;;;;11.60;9.02;;;24.80;65.80;;;;;;5093276;28;20052;-64
2022/08/17 02:21:45;;;;;;;10.65;8.80;;;24.80;65.70;;;;;;5094217;28;20044;-64
2022/08/17 02:24:14;;;;;;;10.93;8.68;;;24.80;65.70;;;;;;5094158;28;20043;-64
2022/08/17 02:26:40;;;;;;;13.63;9.23;;;24.80;65.70;;;;;;5092154;28;20093;-65
2022/08/17 02:29:06;;;;;;;11.90;8.70;;;24.80;65.70;;;;;;5093801;28;20055;-64
2022/08/17 02:31:31;;;;;;;10.40;8.65;;;24.80;65.70;;;;;;5093004;28;20540;-65
2022/08/17 02:33:57;;;;;;;9.50;8.00;;;24.80;65.70;;;;;;5094046;28;20093;-65
2022/08/17 02:36:22;;;;;;;11.70;8.95;;;24.80;65.70;;;;;;5093577;28;20050;-64
2022/08/17 02:38:48;;;;;;;9.95;8.20;;;24.80;65.70;;;;;;5093058;28;20040;-64
2022/08/17 02:41:13;;;;;;;10.77;8.57;;;24.80;65.70;;;;;;5093269;28;20036;-65
2022/08/17 02:43:39;;;;;;;10.93;8.60;;;24.80;65.60;;;;;;5093890;28;20147;-65
2022/08/17 02:46:05;;;;;;;9.48;8.13;;;24.80;65.70;;;;;;5093158;28;20052;-64
2022/08/17 02:48:30;;;;;;;10.75;8.23;;;24.80;65.70;;;;;;5093526;28;20040;-64
2022/08/17 02:50:56;;;;;;;9.82;8.25;;;24.80;65.60;;;;;;5093698;28;20032;-65
2022/08/17 02:53:21;;;;;;;10.05;8.52;;;24.80;65.60;;;;;;5092571;28;20073;-64
2022/08/17 02:55:47;;;;;;;10.98;8.90;;;24.80;65.60;;;;;;5093788;28;20032;-65
2022/08/17 02:58:13;;;;;;;11.15;8.35;;;24.80;65.60;;;;;;5093362;28;20173;-65
2022/08/17 03:00:40;;;;;;;10.02;8.63;;;24.80;65.60;;;;;;5093060;28;20472;-64
2022/08/17 03:03:06;;;;;;;11.00;8.35;;;24.80;65.60;;;;;;5093124;28;20414;-64
2022/08/17 03:05:32;;;;;;;12.63;8.60;;;24.70;65.50;;;;;;5091826;28;20119;-65
2022/08/17 03:07:58;;;;;;;10.20;8.25;;;24.70;65.50;;;;;;5092683;28;20044;-65
2022/08/17 03:10:24;;;;;;;10.38;8.20;;;24.70;65.50;;;;;;5092814;28;20128;-64
2022/08/17 03:12:50;;;;;;;14.30;9.40;;;24.80;65.50;;;;;;5093367;28;20127;-64
2022/08/17 03:15:20;;;;;;;9.82;7.97;;;24.70;65.50;;;;;;5092340;28;20123;-64
2022/08/17 03:17:46;;;;;;;10.75;8.80;;;24.70;65.50;;;;;;5091988;28;20048;-64
2022/08/17 03:20:12;;;;;;;11.02;7.90;;;24.70;65.50;;;;;;5093079;28;20130;-64
2022/08/17 03:22:40;;;;;;;9.18;7.93;;;24.70;65.50;;;;;;5125249;27;20043;-64
2022/08/17 03:25:08;;;;;;;11.45;8.23;;;24.70;65.50;;;;;;5092986;28;20048;-64
2022/08/17 03:27:33;;;;;;;10.05;8.20;;;24.70;65.50;;;;;;5092935;28;20051;-64
2022/08/17 03:29:59;;;;;;;10.30;8.20;;;24.70;65.50;;;;;;5092032;28;20052;-65
2022/08/17 03:32:25;;;;;;;10.20;8.45;;;24.70;65.50;;;;;;5092629;28;20093;-64
2022/08/17 03:34:50;;;;;;;12.50;8.52;;;24.70;65.50;;;;;;5092342;28;20543;-65
2022/08/17 03:37:16;;;;;;;10.38;8.65;;;24.70;65.50;;;;;;5092701;28;20058;-65
2022/08/17 03:39:41;;;;;;;10.23;8.65;;;24.70;65.50;;;;;;5092979;28;20047;-65
2022/08/17 03:42:12;;;;;;;10.85;8.35;;;24.70;65.40;;;;;;5125058;27;20079;-65
2022/08/17 03:44:38;;;;;;;10.82;8.48;;;24.70;65.40;;;;;;5091582;28;20048;-64
2022/08/17 03:58:00;;;;;;;11.88;9.00;;;24.60;65.40;;;;;;5091882;28;20044;-64
2022/08/17 04:00:26;;;;;;;10.25;8.32;;;24.60;65.40;;;;;;5092280;28;20040;-65
2022/08/17 04:02:52;;;;;;;9.98;8.05;;;24.70;65.50;;;;;;5091545;28;20055;-64
2022/08/17 04:05:17;;;;;;;9.60;8.38;;;24.70;65.50;;;;;;5090816;28;20036;-64
2022/08/17 04:07:43;;;;;;;9.98;8.05;;;24.70;65.50;;;;;;5092106;28;20054;-64
2022/08/17 04:10:08;;;;;;;10.88;8.35;;;24.60;65.50;;;;;;5091874;28;20376;-65
2022/08/17 04:12:43;;;;;;;9.82;8.25;;;24.60;65.50;;;;;;5092255;28;20552;-64
2022/08/17 04:15:08;;;;;;;11.75;8.52;;;24.60;65.50;;;;;;5091041;28;20048;-64
2022/08/17 04:17:34;;;;;;;10.95;8.70;;;24.60;65.50;;;;;;5091230;28;20044;-64
2022/08/17 04:19:59;;;;;;;11.50;8.85;;;24.60;65.50;;;;;;5092703;28;20490;-64
2022/08/17 04:22:25;;;;;;;10.02;8.02;;;24.60;65.60;;;;;;5092287;28;20052;-64
2022/08/17 04:24:50;;;;;;;9.60;8.48;;;24.60;65.60;;;;;;5091707;28;20044;-65
2022/08/17 04:27:16;;;;;;;10.20;8.63;;;24.60;65.60;;;;;;5092240;28;20092;-64
2022/08/17 04:29:41;;;;;;;10.55;9.05;;;24.60;65.60;;;;;;5092050;28;20113;-64
2022/08/17 04:32:07;;;;;;;10.38;8.93;;;24.60;65.60;;;;;;5091385;28;20052;-64
2022/08/17 04:34:32;;;;;;;9.82;8.30;;;24.60;65.60;;;;;;5092082;28;20455;-64
2022/08/17 04:36:58;;;;;;;9.82;8.05;;;24.60;65.60;;;;;;5092533;28;20123;-64
2022/08/17 04:39:25;;;;;;;10.07;8.80;;;24.60;65.70;;;;;;5124462;28;20066;-65
2022/08/17 04:42:05;;;;;;;10.07;8.85;;;24.60;65.70;;;;;;5091078;28;20050;-64
2022/08/17 04:44:32;;;;;;;10.27;8.65;;;24.60;65.70;;;;;;5091843;28;20044;-64
2022/08/17 04:46:57;;;;;;;11.85;9.15;;;24.60;65.70;;;;;;5090051;28;20055;-64
2022/08/17 04:49:23;;;;;;;9.18;8.10;;;24.60;65.80;;;;;;5092043;28;20040;-64
2022/08/17 04:51:49;;;;;;;10.68;9.07;;;24.60;65.80;;;;;;5092173;28;20044;-64
2022/08/17 04:54:19;;;;;;;11.50;9.35;;;24.50;65.80;;;;;;5089870;28;20040;-65
2022/08/17 04:56:45;;;;;;;11.38;8.77;;;24.60;65.80;;;;;;5092314;28;20051;-65
2022/08/17 04:59:14;;;;;;;10.45;9.13;;;24.60;65.80;;;;;;5091291;28;20139;-64
2022/08/17 05:01:40;;;;;;;11.70;8.70;;;24.60;65.90;;;;;;5092099;28;20036;-63
2022/08/17 05:04:09;;;;;;;11.00;8.80;;;24.60;65.80;;;;;;5092877;28;20119;-64
2022/08/17 05:06:35;;;;;;;11.90;9.20;;;24.50;65.80;;;;;;5094500;28;20048;-64
2022/08/17 05:09:00;;;;;;;11.15;9.65;;;24.60;65.90;;;;;;5095606;28;20051;-64
2022/08/17 05:11:27;;;;;;;11.57;9.15;;;24.50;65.90;;;;;;5095374;28;20105;-64
2022/08/17 05:13:53;;;;;;;12.43;8.73;;;24.60;65.90;;;;;;5095036;28;20044;-64
2022/08/17 05:16:19;;;;;;;10.63;8.90;;;24.50;65.80;;;;;;5095281;28;20135;-64
2022/08/17 05:18:45;;;;;;;11.13;9.18;;;24.50;65.80;;;;;;5095504;28;20115;-64
2022/08/17 05:21:10;;;;;;;11.55;9.00;;;24.50;65.90;;;;;;5094665;28;20143;-64
2022/08/17 05:23:36;;;;;;;11.05;9.60;;;24.50;65.90;;;;;;5094942;28;20093;-64
2022/08/17 05:26:02;;;;;;;10.55;8.50;;;24.50;65.90;;;;;;5095146;28;20039;-65
2022/08/17 05:28:27;;;;;;;10.90;8.57;;;24.50;65.90;;;;;;5094109;28;20411;-65
2022/08/17 05:30:54;;;;;;;28.67;20.88;;;24.50;66.00;;;;;;5095349;28;20055;-64
2022/08/17 05:33:25;;;;;;;30.15;24.15;;;24.50;66.10;;;;;;5094654;28;20104;-63
2022/08/17 05:35:52;;;;;;;32.70;24.42;;;24.40;66.30;;;;;;5093458;28;20434;-63
2022/08/17 05:38:19;;;;;;;33.95;26.77;;;24.30;66.60;;;;;;5094569;28;20112;-79
2022/08/17 05:40:44;;;;;;;33.75;26.25;;;24.20;66.90;;;;;;5093788;28;20492;-64
2022/08/17 05:43:21;;;;;;;33.28;26.08;;;24.10;67.20;;;;;;5094504;28;20047;-64
2022/08/17 05:45:54;;;;;;;34.75;26.75;;;24.00;67.50;;;;;;5094959;28;20047;-64
2022/08/17 05:48:19;;;;;;;33.95;26.33;;;23.80;67.80;;;;;;5093590;28;20081;-64
2022/08/17 05:51:19;;;;;;;34.63;27.15;;;23.80;68.00;;;;;;5076699;28;20043;-64
2022/08/17 05:53:53;;;;;;;35.00;26.02;;;23.70;68.10;;;;;;5094905;28;20067;-64
2022/08/17 05:56:42;;;;;;;33.30;26.00;;;23.60;68.30;;;;;;5092343;28;20101;-64
2022/08/17 05:59:30;;;;;;;35.45;26.77;;;23.60;68.50;;;;;;5093798;28;20050;-64
2022/08/17 06:02:23;;;;;;;34.83;28.13;;;23.50;68.60;;;;;;5090355;28;20131;-64
2022/08/17 06:05:16;;;;;;;33.03;25.75;;;23.40;68.80;;;;;;5093086;28;20089;-64
2022/08/17 06:08:08;;;;;;;34.72;26.92;;;23.40;69.00;;;;;;5079056;28;20044;-62
2022/08/17 06:11:13;;;;;;;37.35;25.88;;;23.40;69.10;;;;;;5088136;28;20048;-64
2022/08/17 06:14:09;;;;;;;36.22;27.55;;;23.30;69.30;;;;;;5077581;28;20522;-63
2022/08/17 06:16:40;;;;;;;33.95;26.00;;;23.30;69.40;;;;;;5090930;28;20499;-64
2022/08/17 06:19:18;;;;;;;36.15;25.92;;;23.30;69.50;;;;;;5092923;28;20077;-63
2022/08/17 06:21:46;;;;;;;34.67;27.17;;;23.30;70.30;;;;;;5092490;28;20541;-63
2022/08/17 06:24:40;;;;;;;36.95;26.95;;;23.20;69.70;;;;;;5075053;28;20059;-64
2022/08/17 06:27:30;;;;;;;36.55;26.65;;;23.20;69.80;;;;;;5061585;28;20119;-63
2022/08/17 06:30:23;;;;;;;33.35;25.10;;;23.20;70.10;;;;;;5092373;28;20079;-63
2022/08/17 06:32:49;;;;;;;34.38;25.15;;;23.20;70.10;;;;;;5090710;28;20381;-65
2022/08/17 06:35:32;;;;;;;33.40;25.55;;;23.20;70.10;;;;;;5075416;28;20055;-64
2022/08/17 06:38:40;;;;;;;33.97;26.48;;;23.20;70.00;;;;;;5091858;28;20127;-64
2022/08/17 06:41:08;;;;;;;;;;;23.20;70.00;;;;;;5046423;28;20048;-64
2022/08/17 06:43:52;;;;;;;33.88;25.42;;;23.00;69.90;;;;;;5092448;28;19924;-64
2022/08/17 06:46:33;;;;;;;34.13;26.27;;;23.10;70.10;;;;;;5091805;28;20048;-64
2022/08/17 06:49:16;;;;;;;32.33;24.77;;;23.10;70.30;;;;;;5092411;28;20476;-64
2022/08/17 06:52:21;;;;;;;31.27;24.80;;;23.10;70.20;;;;;;5091992;28;20509;-63
2022/08/17 06:55:05;;;;;;;32.78;24.15;;;23.00;70.20;;;;;;5011329;28;20181;-63
2022/08/17 06:57:32;;;;;;;31.42;23.15;;;23.10;70.30;;;;;;4978486;28;20209;-64
2022/08/17 07:00:07;;;;;;;29.67;23.20;;;23.10;70.30;;;;;;5034671;28;20117;-63
2022/08/17 07:02:41;;;;;;;34.63;24.52;;;23.10;70.30;;;;;;5092350;28;20056;-63
2022/08/17 07:05:07;;;;;;;28.65;22.10;;;23.10;70.40;;;;;;5090738;28;20040;-62
2022/08/17 07:10:18;;;;;;;29.65;22.23;;;23.20;70.20;;;;;;5091602;28;20079;-63
2022/08/17 07:12:44;;;;;;;31.80;22.55;;;23.20;70.30;;;;;;5090597;28;20075;-62
2022/08/17 07:15:21;;;;;;;29.92;22.73;;;23.20;70.30;;;;;;5108848;28;20040;-63
2022/08/17 07:17:47;;;;;;;31.10;22.83;;;23.30;70.30;;;;;;5108870;27;20044;-63
2022/08/17 07:20:16;;;;;;;31.52;22.70;;;23.30;70.20;;;;;;5091237;28;20139;-63
2022/08/17 07:23:00;;;;;;;28.42;21.25;;;23.30;70.10;;;;;;5091694;28;20062;-62
2022/08/17 07:25:27;;;;;;;27.70;20.90;;;23.30;70.10;;;;;;5092598;28;20040;-63
2022/08/17 07:27:54;;;;;;;28.48;21.33;;;23.40;70.20;;;;;;5091272;28;20135;-63
2022/08/17 07:30:27;;;;;;;26.60;21.53;;;23.40;70.20;;;;;;5089530;28;20091;-64
2022/08/17 07:33:02;;;;;;;26.45;20.48;;;23.40;70.10;;;;;;5090232;28;20123;-63
2022/08/17 07:35:27;;;;;;;27.55;20.65;;;23.40;70.00;;;;;;5091307;28;20074;-63
2022/08/17 07:38:08;;;;;;;25.60;19.75;;;23.40;70.00;;;;;;5092420;28;20052;-63
2022/08/17 07:40:38;;;;;;;27.50;20.08;;;23.40;69.80;;;;;;5079519;28;20051;-63
2022/08/17 07:43:24;;;;;;;23.73;18.73;;;23.40;69.40;;;;;;5088964;28;20048;-63
2022/08/17 07:49:12;;;;;;;25.60;17.67;;;23.50;68.90;;;;;;5091118;28;20055;-63
2022/08/17 07:51:46;;;;;;;23.42;17.30;;;23.60;69.00;;;;;;5090469;28;20036;-63
2022/08/17 07:54:14;;;;;;;22.00;16.73;;;23.60;69.00;;;;;;5092600;28;20040;-63
2022/08/17 07:56:44;;;;;;;26.00;17.50;;;23.60;69.10;;;;;;5091394;28;20123;-63
2022/08/17 07:59:12;;;;;;;23.05;17.85;;;23.60;69.00;;;;;;5090875;28;20036;-63
2022/08/17 08:01:38;;;;;;;24.00;16.02;;;23.60;68.80;;;;;;5091909;28;20101;-64
2022/08/17 08:04:39;;;;;;;25.98;16.05;;;23.70;68.80;;;;;;5091786;28;20430;-63
2022/08/17 08:07:20;;;;;;;18.75;14.95;;;23.70;68.80;;;;;;5086352;28;20108;-63
2022/08/17 08:10:04;;;;;;;21.17;15.90;;;23.70;68.70;;;;;;5091251;28;20131;-63
2022/08/17 08:12:32;;;;;;;19.35;14.73;;;23.80;68.60;;;;;;5092020;28;20075;-63
2022/08/17 08:15:08;;;;;;;20.52;14.75;;;23.90;68.50;;;;;;5092070;28;20056;-63
2022/08/17 08:17:43;;;;;;;18.60;13.68;;;23.90;68.40;;;;;;5091299;28;20076;-63
2022/08/17 08:20:09;;;;;;;18.60;13.32;;;24.00;68.30;;;;;;5092099;28;20051;-63
2022/08/17 08:23:19;;;;;;;16.52;12.43;;;24.00;68.30;;;;;;5091827;28;20036;-63
2022/08/17 08:25:45;;;;;;;16.73;12.13;;;24.10;68.10;;;;;;5092390;28;20044;-63
2022/08/17 08:28:32;;;;;;;15.68;10.77;;;24.10;68.00;;;;;;5092072;28;20048;-63
2022/08/17 08:31:49;;;;;;;13.27;10.73;;;24.10;67.90;;;;;;5090184;28;20044;-63
2022/08/17 08:34:42;;;;;;;14.77;9.73;;;24.20;67.90;;;;;;5046248;28;20108;-63
2022/08/17 08:37:38;;;;;;;12.10;9.73;;;24.20;67.90;;;;;;5090241;28;20119;-63
2022/08/17 08:40:23;;;;;;;13.35;10.02;;;24.20;67.80;;;;;;5088073;28;20121;-62
2022/08/17 08:42:55;;;;;;;12.70;9.02;;;24.20;67.80;;;;;;5095971;28;20044;-62
2022/08/17 08:45:31;;;;;;;10.73;8.35;;;24.30;67.80;;;;;;5093439;28;20108;-62
2022/08/17 08:48:18;;;;;;;11.45;9.05;;;24.20;67.70;;;;;;5112371;27;20052;-62
2022/08/17 08:51:04;;;;;;;10.75;7.93;;;24.30;67.70;;;;;;5094611;28;20056;-62
2022/08/17 08:53:58;;;;;;;10.15;8.23;;;24.30;67.70;;;;;;5093882;28;20109;-62
2022/08/17 08:56:48;;;;;;;10.43;8.20;;;24.30;67.70;;;;;;5094982;28;20188;-62
2022/08/17 08:59:37;;;;;;;10.35;7.90;;;24.30;67.60;;;;;;5094520;28;20044;-62
2022/08/17 09:02:27;;;;;;;11.60;8.23;;;24.30;67.60;;;;;;5095400;28;20036;-62
2022/08/17 09:05:11;;;;;;;10.48;7.72;;;24.30;67.70;;;;;;5095621;28;20084;-62
2022/08/17 09:07:46;;;;;;;10.27;7.40;;;24.30;67.60;;;;;;5095192;28;20044;-63
2022/08/17 09:10:24;;;;;;;10.68;7.55;;;24.30;67.60;;;;;;5095471;28;20526;-63
2022/08/17 09:12:49;;;;;;;;;;;24.30;67.60;;;;;;5093759;28;20166;-63
2022/08/17 09:15:24;;;;;;;9.43;8.10;;;24.30;67.50;;;;;;5094960;28;20011;-63
2022/08/17 09:18:04;;;;;;;8.00;7.03;;;24.30;67.60;;;;;;5094041;28;20510;-63
2022/08/17 09:20:33;;;;;;;10.27;7.50;;;24.30;67.80;;;;;;5093152;28;20048;-63
2022/08/17 09:23:21;;;;;;;11.13;7.78;;;24.30;67.60;;;;;;5094260;28;20044;-63
2022/08/17 09:26:21;;;;;;;9.52;7.15;;;24.30;67.60;;;;;;5094231;28;20472;-63
2022/08/17 09:28:49;;;;;;;7.88;6.72;;;24.30;67.60;;;;;;5107575;27;20555;-63
2022/08/17 09:31:19;;;;;;;;;;;24.30;67.60;;;;;;5095215;28;20055;-63
2022/08/17 09:33:46;;;;;;;9.52;7.03;;;24.30;68.20;;;;;;5094074;28;19927;-63
2022/08/17 09:36:37;;;;;;;10.70;7.57;;;24.30;67.70;;;;;;5094938;28;20039;-63
2022/08/17 09:39:06;;;;;;;7.95;7.15;;;24.30;67.70;;;;;;5090014;28;20060;-63
2022/08/17 09:42:06;;;;;;;8.63;7.22;;;24.40;67.80;;;;;;5093875;28;20043;-63
2022/08/17 09:44:34;;;;;;;10.27;7.35;;;24.30;67.70;;;;;;5076365;28;20100;-62
2022/08/17 09:47:06;;;;;;;8.15;7.07;;;24.40;67.80;;;;;;5094582;28;20036;-63
2022/08/17 09:49:36;;;;;;;8.73;6.65;;;24.40;67.80;;;;;;5092744;28;20059;-63
2022/08/17 09:52:09;;;;;;;9.57;7.00;;;24.40;67.80;;;;;;5077362;28;20094;-63
2022/08/17 09:54:36;;;;;;;7.47;6.60;;;24.50;67.70;;;;;;5092490;28;20456;-63
2022/08/17 09:57:21;;;;;;;9.47;7.23;;;24.50;67.70;;;;;;5093411;28;20078;-63
2022/08/17 10:00:19;;;;;;;8.63;6.95;;;24.50;67.60;;;;;;5094463;28;20305;-63
2022/08/17 10:03:22;;;;;;;7.75;6.53;;;24.50;67.50;;;;;;5109416;28;20074;-63
2022/08/17 10:05:55;;;;;;;7.63;6.55;;;24.50;67.50;;;;;;5093405;28;20047;-63
2022/08/17 10:08:24;;;;;;;7.47;6.70;;;24.50;67.40;;;;;;5093978;28;20494;-63
2022/08/17 10:12:14;;;;;;;7.82;6.65;;;24.60;67.40;;;;;;5092552;28;20053;-63
2022/08/17 10:14:17;;;;;;;8.75;7.47;;;24.60;67.40;;;;;;5078977;28;20066;-63
2022/08/17 10:16:45;;;;;;;8.65;7.03;;;24.60;67.30;;;;;;5091768;28;20061;-63
2022/08/17 10:19:51;;;;;;;9.35;7.63;;;24.60;67.20;;;;;;5076132;28;20055;-62
2022/08/17 10:28:12;;;;;;;;;;;24.70;67.20;;;;;;5038210;28;20135;-62
2022/08/17 10:30:54;;;;;;;8.38;6.53;;;24.60;67.20;;;;;;5092691;28;19974;-62
2022/08/17 10:33:26;;;;;;;8.10;6.78;;;24.70;67.20;;;;;;5091969;28;20051;-62
2022/08/17 10:36:00;;;;;;;7.78;6.80;;;24.60;67.10;;;;;;5092067;28;20120;-62
2022/08/17 10:38:29;;;;;;;8.93;7.05;;;24.70;67.20;;;;;;5091240;28;20079;-65
2022/08/17 10:41:04;;;;;;;9.88;6.63;;;24.70;67.20;;;;;;5092422;28;20036;-62
2022/08/17 10:43:33;;;;;;;8.68;6.95;;;24.70;67.30;;;;;;5093311;28;20043;-62
2022/08/17 10:46:06;;;;;;;7.47;6.65;;;24.70;67.40;;;;;;5074778;28;20048;-62
2022/08/17 10:48:35;;;;;;;12.15;7.20;;;24.70;67.40;;;;;;5091941;28;20093;-62
2022/08/17 10:51:34;;;;;;;10.52;6.90;;;24.70;67.40;;;;;;5091324;28;20044;-62
2022/08/17 10:54:00;;;;;;;8.07;6.85;;;24.80;67.80;;;;;;5093529;28;20098;-62
2022/08/17 10:56:44;;;;;;;8.48;6.45;;;24.80;67.80;;;;;;5091882;28;20048;-62
2022/08/17 10:59:09;;;;;;;9.20;6.80;;;24.80;67.70;;;;;;5091336;28;20043;-62
2022/08/17 11:01:38;;;;;;;8.43;6.03;;;24.80;67.60;;;;;;5074283;28;20055;-61
2022/08/17 11:04:17;;;;;;;7.13;6.38;;;24.80;67.60;;;;;;5092801;28;20467;-62
2022/08/17 11:06:50;;;;;;;11.38;7.22;;;24.80;67.50;;;;;;5091019;28;20036;-61
2022/08/17 11:09:34;;;;;;;8.65;6.82;;;24.80;67.50;;;;;;5091058;28;20028;-62
2022/08/17 11:12:05;;;;;;;8.55;6.88;;;24.90;67.50;;;;;;5074684;28;20373;-62
2022/08/17 11:14:33;;;;;;;8.52;7.00;;;24.90;67.40;;;;;;5089914;28;20036;-61
2022/08/17 11:17:02;;;;;;;8.43;7.43;;;24.90;67.50;;;;;;5092074;28;20480;-61
2022/08/17 11:19:38;;;;;;;8.82;6.80;;;24.90;67.40;;;;;;5088710;28;20035;-62
2022/08/17 11:22:06;;;;;;;8.52;6.40;;;24.90;67.40;;;;;;5090957;28;20518;-62
2022/08/17 11:24:57;;;;;;;12.18;7.40;;;24.90;67.40;;;;;;5092390;28;20051;-62
2022/08/17 11:27:28;;;;;;;8.07;7.00;;;25.00;67.40;;;;;;5089950;28;20104;-60
2022/08/17 11:30:00;;;;;;;11.55;7.78;;;25.00;67.50;;;;;;5090639;28;20054;-61
2022/08/17 11:32:39;;;;;;;10.32;7.32;;;24.90;67.40;;;;;;5089962;28;20040;-63
2022/08/17 11:35:24;;;;;;;10.45;7.57;;;25.00;67.60;;;;;;5089684;28;20487;-62
2022/08/17 11:38:24;;;;;;;10.13;7.03;;;25.00;67.60;;;;;;5089973;28;20046;-65
2022/08/17 11:41:07;;;;;;;11.20;7.65;;;25.00;67.80;;;;;;5090484;28;20037;-63
2022/08/17 11:43:44;;;;;;;13.65;9.27;;;25.00;67.80;;;;;;5090231;28;20044;-62
2022/08/17 11:46:17;;;;;;;18.67;11.20;;;25.00;67.90;;;;;;5090975;28;20036;-62
2022/08/17 11:51:59;;;;;;;19.20;14.48;;;25.00;67.90;;;;;;5091601;28;20048;-63
2022/08/17 11:54:33;;;;;;;22.73;14.95;;;25.00;68.00;;;;;;5089475;28;20048;-62
2022/08/17 11:57:01;;;;;;;23.60;17.15;;;25.00;68.10;;;;;;5089716;28;20044;-63
2022/08/17 11:59:34;;;;;;;;;;;25.00;68.10;;;;;;5090575;28;20682;-63
2022/08/17 12:02:05;;;;;;;23.52;16.33;;;24.90;68.10;;;;;;5088874;28;19920;-62
2022/08/17 12:04:32;;;;;;;24.42;17.77;;;24.90;68.10;;;;;;5090096;28;20063;-63
2022/08/17 12:07:12;;;;;;;23.92;17.65;;;24.90;68.20;;;;;;5087941;28;20105;-63
2022/08/17 12:09:39;;;;;;;22.85;17.40;;;24.90;68.30;;;;;;5073391;28;20464;-64
2022/08/17 12:12:16;;;;;;;22.07;16.50;;;24.90;68.50;;;;;;5091298;28;20141;-65
2022/08/17 12:14:50;;;;;;;28.67;21.00;;;24.90;68.60;;;;;;5094408;28;20361;-62
2022/08/17 12:17:19;;;;;;;31.05;21.20;;;24.90;68.70;;;;;;5093952;28;20118;-59
2022/08/17 12:19:44;;;;;;;27.70;20.33;;;24.90;68.70;;;;;;5094316;28;20047;-62
2022/08/17 12:22:52;;;;;;;32.38;21.92;;;24.80;68.80;;;;;;5094160;28;20047;-63
2022/08/17 12:25:22;;;;;;;28.17;20.52;;;24.90;69.00;;;;;;5065330;28;20058;-62
2022/08/17 12:27:48;;;;;;;27.45;19.98;;;24.80;69.10;;;;;;5095871;28;20044;-62
2022/08/17 12:30:16;;;;;;;29.52;20.25;;;24.80;69.90;;;;;;5091444;28;20055;-63
2022/08/17 12:32:46;;;;;;;31.15;20.85;;;24.90;69.40;;;;;;5094725;28;20054;-63
2022/08/17 12:35:29;;;;;;;27.10;20.30;;;24.90;69.40;;;;;;5095405;28;20048;-63
2022/08/17 12:37:56;;;;;;;28.15;20.25;;;24.80;69.20;;;;;;5077761;28;20055;-63
2022/08/17 12:40:25;;;;;;;30.08;21.23;;;24.80;69.30;;;;;;5093826;28;20044;-61
2022/08/17 12:43:06;;;;;;;32.65;22.42;;;24.80;69.30;;;;;;5095394;28;20042;-66
2022/08/17 12:45:33;;;;;;;29.50;22.15;;;24.80;69.40;;;;;;5092912;28;20044;-66
2022/08/17 12:48:10;;;;;;;30.48;21.92;;;24.80;69.50;;;;;;5095570;28;20048;-68
2022/08/17 12:50:43;;;;;;;28.08;20.98;;;24.80;69.50;;;;;;5092952;28;20820;-62
2022/08/17 12:53:19;;;;;;;31.60;23.35;;;24.80;69.70;;;;;;5077831;28;20044;-62
2022/08/17 12:55:44;;;;;;;34.83;24.05;;;24.80;69.70;;;;;;5094240;28;20044;-64
2022/08/17 12:58:11;;;;;;;33.92;24.90;;;24.80;69.80;;;;;;5094580;28;20043;-75
2022/08/17 13:00:40;;;;;;;42.50;27.52;;;24.80;70.10;;;;;;5095233;28;20146;-60
2022/08/17 13:03:16;;;;;;;38.75;27.30;;;24.80;70.10;;;;;;5077333;28;20490;-64
2022/08/17 13:06:02;;;;;;;51.40;28.25;;;24.80;70.20;;;;;;5094725;28;20032;-62
2022/08/17 13:08:30;;;;;;;43.15;27.35;;;24.80;70.20;;;;;;5094958;28;20498;-63
2022/08/17 13:10:59;;;;;;;;;;;24.80;70.40;;;;;;5095435;28;20395;-67
2022/08/17 13:13:27;;;;;;;41.35;28.13;;;24.80;70.40;;;;;;5092912;28;19919;-70
2022/08/17 13:15:57;;;;;;;;;;;24.80;70.70;;;;;;5094187;28;20044;-66
2022/08/17 13:18:40;;;;;;;41.83;29.92;;;24.70;70.60;;;;;;5127794;27;19974;-65
2022/08/17 13:21:17;;;;;;;46.22;30.45;;;24.70;71.00;;;;;;5094853;28;20480;-64
2022/08/17 13:23:55;;;;;;;45.80;30.98;;;24.80;71.30;;;;;;5094465;28;20042;-60
2022/08/17 13:26:42;;;;;;;52.72;35.13;;;24.70;71.40;;;;;;5092806;28;20519;-60
2022/08/17 13:29:19;;;;;;;47.90;32.92;;;24.70;71.60;;;;;;5093458;28;20056;-64
2022/08/17 13:31:45;;;;;;;49.65;33.35;;;24.70;71.80;;;;;;5094904;28;20115;-59
2022/08/17 13:34:28;;;;;;;43.33;30.77;;;24.70;71.80;;;;;;5094119;28;20452;-64